»·PEaware :: N576TB KOGD-KBCE

N576TB :: KOGD-KBCE

FLIGHT INFORMATION

Flight Status: Arrived
Operator: Privately registered:
United States
More flights under this callsign
Pilot: Anonymous 8274 (8274)
Aircraft: BEECH AIRCRAFT DEBONAIR BONANZA
(BE33)
More flights by this aircraft type
Origin: KOGD Ogden-Hinckley
United States
Destination: KBCE Bryce Canyon
United States
More flights between these airports :: More routes between these airports
Route:
File this flight plan on PilotEdge
Remarks:
Altitude:
(Current/Filed)
9,500ft
Speed:
(Current/Filed)
150kts
Departed: 12-Oct-17 06:29 PM
Arrived: 12-Oct-17 08:18 PM
Distance/Time
Traveled:
210nm/1:49
Distance/Time
To Go:
Arrived

Flight Plot

Page will automatically refresh every two minutes.

Flight plan parsing failed; only flown route is shown


Map Options




Map Legend


Flown Route
Filed Route
Departure Airport
Arrival Airport
Navaid (VOR, NDB)
Fix

Horizontal Profiles

Position Reports

Time Latitude Longitude Heading Altitude Ground
Speed
12-Oct-17 18:08 41.192108 -112.009940 359 4433ft 0kts
12-Oct-17 18:09 41.192108 -112.009940 359 4433ft 0kts
12-Oct-17 18:10 41.192108 -112.009940 359 4433ft 0kts
12-Oct-17 18:11 41.192108 -112.009940 359 4433ft 0kts
12-Oct-17 18:12 41.192108 -112.009940 359 4433ft 0kts
12-Oct-17 18:13 41.192108 -112.009940 359 4433ft 0kts
12-Oct-17 18:14 41.192108 -112.009940 359 4433ft 0kts
12-Oct-17 18:15 41.192108 -112.009940 359 4433ft 0kts
12-Oct-17 18:16 41.192108 -112.009940 359 4433ft 0kts
12-Oct-17 18:17 41.192108 -112.009940 359 4433ft 0kts
12-Oct-17 18:18 41.192108 -112.009940 359 4433ft 0kts
12-Oct-17 18:19 41.192108 -112.009940 359 4433ft 0kts
12-Oct-17 18:20 41.192108 -112.009940 359 4433ft 0kts
12-Oct-17 18:21 41.192108 -112.009940 359 4433ft 0kts
12-Oct-17 18:22 41.192108 -112.009940 359 4433ft 0kts
12-Oct-17 18:24 41.192108 -112.009940 359 4433ft 0kts
12-Oct-17 18:25 41.192108 -112.009940 359 4433ft 0kts
12-Oct-17 18:26 41.192108 -112.009940 359 4433ft 0kts
12-Oct-17 18:27 41.192108 -112.009940 359 4433ft 0kts
12-Oct-17 18:28 41.192108 -112.009940 359 4433ft 0kts
12-Oct-17 18:29 41.192108 -112.009940 359 4433ft 0kts
12-Oct-17 18:30 41.192806 -112.011748 226 4433ft 21kts
12-Oct-17 18:31 41.190550 -112.013371 179 4432ft 17kts
12-Oct-17 18:32 41.186757 -112.016360 270 4433ft 27kts
12-Oct-17 18:33 41.188929 -112.019641 44 4432ft 10kts
12-Oct-17 18:34 41.203217 -112.000868 43 4885ft 94kts
12-Oct-17 18:35 41.224944 -112.002927 305 5566ft 120kts
12-Oct-17 18:36 41.206796 -112.036286 199 6210ft 130kts
12-Oct-17 18:37 41.174100 -112.018895 143 6816ft 135kts
12-Oct-17 18:38 41.145426 -111.985277 127 7401ft 138kts
12-Oct-17 18:39 41.130164 -111.941498 100 7996ft 139kts
12-Oct-17 18:40 41.130727 -111.897359 89 8486ft 137kts
12-Oct-17 18:41 41.130134 -111.874430 90 8693ft 139kts
12-Oct-17 18:42 41.130134 -111.874430 90 8693ft 139kts
12-Oct-17 18:43 41.130134 -111.874430 90 8693ft 139kts
12-Oct-17 18:44 41.130134 -111.874430 90 8693ft 139kts
12-Oct-17 18:45 41.129457 -111.829370 90 9209ft 135kts
12-Oct-17 18:46 41.100159 -111.803634 165 9487ft 156kts
12-Oct-17 18:47 41.064733 -111.771358 118 9486ft 163kts
12-Oct-17 18:48 41.041917 -111.719036 118 9482ft 164kts
12-Oct-17 18:49 41.006537 -111.689741 174 9481ft 167kts
12-Oct-17 18:50 40.962236 -111.675164 151 9483ft 170kts
12-Oct-17 18:51 40.924176 -111.636503 137 9482ft 174kts
12-Oct-17 18:52 40.883702 -111.604457 170 9481ft 175kts
12-Oct-17 18:53 40.835927 -111.594451 182 9503ft 171kts
12-Oct-17 18:54 40.789570 -111.598391 185 9486ft 166kts
12-Oct-17 18:55 40.749437 -111.614981 256 9455ft 155kts
12-Oct-17 18:56 40.766863 -111.663919 321 9481ft 156kts
12-Oct-17 18:57 40.766518 -111.714560 232 9485ft 169kts
12-Oct-17 18:58 40.736053 -111.762178 231 9482ft 170kts
12-Oct-17 18:59 40.702697 -111.805719 205 9487ft 173kts
12-Oct-17 19:00 40.659179 -111.832288 206 9482ft 174kts
12-Oct-17 19:01 40.612967 -111.849877 184 9483ft 176kts
12-Oct-17 19:02 40.564826 -111.854026 184 9480ft 171kts
12-Oct-17 19:03 40.518060 -111.857876 184 9481ft 168kts
12-Oct-17 19:04 40.471623 -111.861681 184 9481ft 167kts
12-Oct-17 19:05 40.432099 -111.836518 137 9482ft 170kts
12-Oct-17 19:06 40.398178 -111.793902 138 9472ft 171kts
12-Oct-17 19:07 40.365017 -111.748219 137 9247ft 173kts
12-Oct-17 19:08 40.332655 -111.703408 135 9238ft 166kts
12-Oct-17 19:09 40.301022 -111.659686 137 9239ft 164kts
12-Oct-17 19:10 40.268580 -111.619171 165 9230ft 158kts
12-Oct-17 19:11 40.225624 -111.623649 188 9240ft 155kts
12-Oct-17 19:12 40.183023 -111.630623 188 9297ft 154kts
12-Oct-17 19:13 40.139858 -111.636255 188 9481ft 164kts
12-Oct-17 19:14 40.101108 -111.606499 135 9482ft 173kts
12-Oct-17 19:15 40.060910 -111.571579 146 9481ft 174kts
12-Oct-17 19:16 40.020279 -111.537960 146 9481ft 174kts
12-Oct-17 19:17 39.976689 -111.526589 207 9479ft 172kts
12-Oct-17 19:18 39.934112 -111.554123 192 9481ft 173kts
12-Oct-17 19:19 39.885857 -111.555955 179 9482ft 174kts
12-Oct-17 19:20 39.839423 -111.538249 160 9482ft 175kts
12-Oct-17 19:21 39.793676 -111.517191 156 9483ft 174kts
12-Oct-17 19:22 39.749378 -111.491439 155 9482ft 175kts
12-Oct-17 19:23 39.703475 -111.470936 161 9482ft 175kts
12-Oct-17 19:24 39.655835 -111.461683 177 9482ft 174kts
12-Oct-17 19:25 39.607505 -111.461090 187 9480ft 174kts
12-Oct-17 19:26 39.560196 -111.469078 186 9454ft 171kts
12-Oct-17 19:27 39.519095 -111.497140 213 9454ft 169kts
12-Oct-17 19:28 39.480237 -111.530932 213 9454ft 168kts
12-Oct-17 19:29 39.441734 -111.564371 211 9455ft 168kts
12-Oct-17 19:30 39.401453 -111.591149 206 9454ft 168kts
12-Oct-17 19:31 39.359785 -111.618484 206 9454ft 168kts
12-Oct-17 19:31 39.324225 -111.638019 190 9458ft 168kts
12-Oct-17 19:33 39.271996 -111.657598 202 9454ft 168kts
12-Oct-17 19:34 39.230352 -111.684350 209 9454ft 168kts
12-Oct-17 19:34 39.196663 -111.709344 209 9453ft 168kts
12-Oct-17 19:36 39.154632 -111.753954 230 9454ft 171kts
12-Oct-17 19:37 39.124708 -111.802119 231 9455ft 172kts
12-Oct-17 19:37 39.095391 -111.836608 217 9455ft 172kts
12-Oct-17 19:38 39.050694 -111.858345 195 9455ft 172kts
12-Oct-17 19:39 39.004917 -111.875906 195 9455ft 172kts
12-Oct-17 19:40 38.959645 -111.895785 207 9452ft 173kts
12-Oct-17 19:41 38.922947 -111.935044 222 9455ft 172kts
12-Oct-17 19:42 38.884672 -111.972378 214 9455ft 173kts
12-Oct-17 19:43 38.843590 -111.999431 159 9462ft 170kts
12-Oct-17 19:44 38.803775 -111.967526 144 9455ft 170kts
12-Oct-17 19:45 38.763111 -111.938853 156 9653ft 160kts
12-Oct-17 19:46 38.723165 -111.918259 156 10148ft 155kts
12-Oct-17 19:47 38.682276 -111.897200 156 10457ft 168kts
12-Oct-17 19:48 38.637040 -111.876220 165 10455ft 176kts
12-Oct-17 19:49 38.588369 -111.868332 172 10427ft 178kts
12-Oct-17 19:50 38.540811 -111.883248 196 10400ft 176kts
12-Oct-17 19:51 38.494302 -111.901399 196 10400ft 175kts
12-Oct-17 19:52 38.448670 -111.919210 196 10481ft 171kts
12-Oct-17 19:53 38.405231 -111.936237 196 11065ft 159kts
12-Oct-17 19:54 38.362679 -111.952784 196 11531ft 166kts
12-Oct-17 19:55 38.316728 -111.970530 196 11536ft 177kts
12-Oct-17 19:56 38.269312 -111.988811 196 11535ft 179kts
12-Oct-17 19:57 38.221707 -112.007142 196 11535ft 179kts
12-Oct-17 19:58 38.173719 -112.024626 185 11538ft 179kts
12-Oct-17 19:59 38.123872 -112.021652 175 11535ft 179kts
12-Oct-17 20:00 38.074184 -112.017508 175 11535ft 179kts
12-Oct-17 20:01 38.024248 -112.013336 175 11536ft 179kts
12-Oct-17 20:02 37.974559 -112.009178 175 11536ft 180kts
12-Oct-17 20:03 37.924566 -112.008643 180 11536ft 180kts
12-Oct-17 20:04 37.874765 -112.009856 180 11536ft 180kts
12-Oct-17 20:05 37.829624 -112.033326 211 11536ft 179kts
12-Oct-17 20:06 37.783655 -112.056298 200 11535ft 180kts
12-Oct-17 20:07 37.737515 -112.080184 201 11536ft 180kts
12-Oct-17 20:08 37.691570 -112.103640 201 11536ft 180kts
12-Oct-17 20:09 37.645263 -112.127283 201 11536ft 180kts
12-Oct-17 20:10 37.598913 -112.151129 206 11530ft 180kts
12-Oct-17 20:11 37.612867 -112.188712 358 11533ft 170kts
12-Oct-17 20:12 37.660466 -112.188961 359 11536ft 171kts
12-Oct-17 20:13 37.706672 -112.189118 359 11016ft 162kts
12-Oct-17 20:14 37.740052 -112.167361 98 10333ft 164kts
12-Oct-17 20:15 37.708857 -112.170927 269 9617ft 162kts
12-Oct-17 20:16 37.738975 -112.200012 32 8923ft 167kts
12-Oct-17 20:17 37.731768 -112.153507 161 8636ft 138kts
12-Oct-17 20:18 37.704499 -112.179500 220 8382ft 114kts
12-Oct-17 20:19 37.692913 -112.163517 51 7852ft 100kts
12-Oct-17 20:20 37.698076 -112.156506 44 7657ft 88kts
12-Oct-17 20:21 37.701990 -112.151309 46 7578ft 69kts
12-Oct-17 20:22 37.711131 -112.139218 45 7578ft 39kts
12-Oct-17 20:23 37.712081 -112.136882 229 7577ft 0kts
12-Oct-17 20:24 37.712081 -112.136882 229 7577ft 0kts
12-Oct-17 20:25 37.712081 -112.136882 229 7577ft 0kts
12-Oct-17 20:26 37.712081 -112.136882 229 7577ft 0kts
12-Oct-17 20:27 37.712081 -112.136882 229 7577ft 0kts
12-Oct-17 20:28 37.712081 -112.136882 229 7577ft 0kts
12-Oct-17 20:29 37.712081 -112.136882 229 7577ft 0kts
12-Oct-17 20:30 37.712081 -112.136882 229 7577ft 0kts
12-Oct-17 20:31 37.712081 -112.136882 229 7577ft 0kts
12-Oct-17 20:32 37.712081 -112.136882 229 7577ft 0kts
12-Oct-17 20:33 37.712081 -112.136882 229 7577ft 0kts
12-Oct-17 20:34 37.712081 -112.136882 229 7577ft 0kts
12-Oct-17 20:36 37.703234 -112.144040 186 7679ft 82kts

Navigation Log

Ident Type
Flight plan parsing failed, navigation log unavailable